createdAt,value
2023-12-14T00:02:42.955Z,2.96
2023-12-14T00:05:46.716Z,2.88
2023-12-14T00:08:50.498Z,2.95
2023-12-14T00:11:55.616Z,2.94
2023-12-14T00:15:00.799Z,2.96
2023-12-14T00:18:04.656Z,2.88
2023-12-14T00:21:09.278Z,2.90
2023-12-14T00:24:13.046Z,2.90
2023-12-14T00:27:18.254Z,2.93
2023-12-14T00:30:22.167Z,2.97
2023-12-14T00:33:26.160Z,2.96
2023-12-14T00:36:30.041Z,2.99
2023-12-14T00:39:35.394Z,3.01
2023-12-14T00:42:40.564Z,2.94
2023-12-14T00:45:44.497Z,2.95
2023-12-14T00:48:48.311Z,3.01
2023-12-14T00:51:52.224Z,2.94
2023-12-14T00:54:56.038Z,2.98
2023-12-14T00:58:01.233Z,2.95
2023-12-14T01:01:05.956Z,2.99
2023-12-14T01:04:09.874Z,3.00
2023-12-14T01:07:13.576Z,3.02
2023-12-14T01:10:17.476Z,2.94
2023-12-14T01:13:22.613Z,3.04
2023-12-14T01:16:29.158Z,3.02
2023-12-14T01:19:32.912Z,3.01
2023-12-14T01:22:37.184Z,3.00
2023-12-14T01:25:41.138Z,2.99
2023-12-14T01:28:46.806Z,3.05
2023-12-14T01:31:50.726Z,3.02
2023-12-14T01:34:54.545Z,3.02
2023-12-14T01:37:58.388Z,3.01
2023-12-14T01:41:02.291Z,3.00
2023-12-14T01:44:07.582Z,2.97
2023-12-14T01:47:11.518Z,2.96
2023-12-14T01:50:15.349Z,2.94
2023-12-14T01:53:19.249Z,2.91
2023-12-14T01:56:22.976Z,2.86
2023-12-14T01:59:28.959Z,2.86
2023-12-14T02:02:33.009Z,2.84
2023-12-14T02:05:37.214Z,2.81
2023-12-14T02:08:41.058Z,2.84
2023-12-14T02:11:45.017Z,2.84
2023-12-14T02:14:51.516Z,2.87
2023-12-14T02:17:55.495Z,2.89
2023-12-14T02:20:59.233Z,2.86
2023-12-14T02:24:04.759Z,2.88
2023-12-14T02:27:08.503Z,2.78
2023-12-14T02:30:14.036Z,2.79
2023-12-14T02:33:17.862Z,2.71
2023-12-14T02:36:21.631Z,2.67
2023-12-14T02:39:26.811Z,2.72
2023-12-14T02:42:30.626Z,2.78
2023-12-14T02:45:34.463Z,2.72
2023-12-14T02:48:38.310Z,2.70
2023-12-14T02:51:42.168Z,2.83
2023-12-14T02:54:47.371Z,2.83
2023-12-14T02:57:51.235Z,2.92
2023-12-14T03:00:55.072Z,2.80
2023-12-14T03:03:58.929Z,2.86
2023-12-14T03:07:04.138Z,2.96
2023-12-14T03:10:11.151Z,2.95
2023-12-14T03:13:14.966Z,2.96
2023-12-14T03:16:18.956Z,2.94
2023-12-14T03:19:24.018Z,2.98
2023-12-14T03:22:27.773Z,2.99
2023-12-14T03:25:32.985Z,3.03
2023-12-14T03:28:36.770Z,2.93
2023-12-14T03:31:41.165Z,2.94
2023-12-14T03:34:44.928Z,3.02
2023-12-14T03:37:48.747Z,2.98
2023-12-14T03:40:53.917Z,3.02
2023-12-14T03:43:57.850Z,3.04
2023-12-14T03:47:01.732Z,3.06
2023-12-14T03:50:06.812Z,3.06
2023-12-14T03:53:10.654Z,3.07
2023-12-14T03:56:16.007Z,3.04
2023-12-14T03:59:19.761Z,3.06
2023-12-14T04:02:23.715Z,3.02
2023-12-14T04:05:27.625Z,3.07
2023-12-14T04:08:31.600Z,3.11
2023-12-14T04:11:36.980Z,3.11
2023-12-14T04:14:40.689Z,3.12
2023-12-14T04:17:44.465Z,3.17
2023-12-14T04:20:48.252Z,3.10
2023-12-14T04:23:52.011Z,3.10
2023-12-14T04:26:57.111Z,3.11
2023-12-14T04:30:00.874Z,3.14
2023-12-14T04:33:04.859Z,3.05
2023-12-14T04:36:09.576Z,3.13
2023-12-14T04:39:13.524Z,3.15
2023-12-14T04:42:18.863Z,3.19
2023-12-14T04:45:22.672Z,3.07
2023-12-14T04:48:26.514Z,3.10
2023-12-14T04:51:30.333Z,3.12
2023-12-14T04:54:34.210Z,2.98
2023-12-14T04:57:39.463Z,3.03
2023-12-14T05:00:43.756Z,2.95
2023-12-14T05:03:47.563Z,2.99
2023-12-14T05:06:51.326Z,3.03
2023-12-14T05:09:55.199Z,3.05
2023-12-14T05:13:00.338Z,3.04
2023-12-14T05:16:04.376Z,2.99
2023-12-14T05:19:08.281Z,3.03
2023-12-14T05:22:12.615Z,3.09
2023-12-14T05:25:16.974Z,3.03
2023-12-14T05:28:22.070Z,2.98
2023-12-14T05:31:26.166Z,2.99
2023-12-14T05:34:29.957Z,3.02
2023-12-14T05:37:34.435Z,3.04
2023-12-14T05:40:38.226Z,3.05
2023-12-14T05:43:43.828Z,3.04
2023-12-14T05:46:47.779Z,3.03
2023-12-14T05:49:51.579Z,3.01
2023-12-14T05:52:55.553Z,3.04
2023-12-14T05:56:00.512Z,3.06
2023-12-14T05:59:05.865Z,3.08
2023-12-14T06:02:09.808Z,3.13
2023-12-14T06:05:14.755Z,3.11
2023-12-14T06:08:18.703Z,3.08
2023-12-14T06:11:22.754Z,3.06
2023-12-14T06:14:28.310Z,3.18
2023-12-14T06:17:33.206Z,3.14
2023-12-14T06:20:36.954Z,3.15
2023-12-14T06:23:40.801Z,3.11
2023-12-14T06:26:45.324Z,3.17
2023-12-14T06:29:50.489Z,3.23
2023-12-14T06:32:54.307Z,3.20
2023-12-14T06:35:58.149Z,3.21
2023-12-14T06:39:04.111Z,3.20
2023-12-14T06:42:08.170Z,3.17
2023-12-14T06:45:13.751Z,3.18
2023-12-14T06:48:17.623Z,3.26
2023-12-14T06:51:21.469Z,3.31
2023-12-14T06:54:25.347Z,3.33
2023-12-14T06:57:30.230Z,3.37
2023-12-14T07:00:35.809Z,3.35
2023-12-14T07:03:42.183Z,3.36
2023-12-14T07:06:52.744Z,3.35
2023-12-14T07:09:56.488Z,3.34
2023-12-14T07:13:00.543Z,3.39
2023-12-14T07:16:09.294Z,3.33
2023-12-14T07:19:13.158Z,3.33
2023-12-14T07:22:16.930Z,3.28
2023-12-14T07:25:20.741Z,3.27
2023-12-14T07:28:24.895Z,3.24
2023-12-14T07:31:30.359Z,3.26
2023-12-14T07:34:34.257Z,3.19
2023-12-14T07:37:38.073Z,3.22
2023-12-14T07:40:42.394Z,3.16
2023-12-14T07:43:46.194Z,3.10
2023-12-14T07:46:51.388Z,3.10
2023-12-14T07:49:55.931Z,3.08
2023-12-14T07:52:59.871Z,3.06
2023-12-14T07:56:04.560Z,3.08
2023-12-14T07:59:08.966Z,3.08
2023-12-14T08:02:14.397Z,3.06
2023-12-14T08:05:18.167Z,2.98
2023-12-14T08:08:21.983Z,3.04
2023-12-14T08:11:25.817Z,3.10
2023-12-14T08:14:29.684Z,3.06
2023-12-14T08:17:34.930Z,3.16
2023-12-14T08:20:38.713Z,3.08
2023-12-14T08:23:42.469Z,3.14
2023-12-14T08:26:46.782Z,3.23
2023-12-14T08:29:50.530Z,3.11
2023-12-14T08:32:55.718Z,3.21
2023-12-14T08:35:59.909Z,3.21
2023-12-14T08:39:04.069Z,3.26
2023-12-14T08:42:07.871Z,3.23
2023-12-14T08:45:26.134Z,3.22
2023-12-14T08:48:31.273Z,3.29
2023-12-14T08:51:35.744Z,3.28
2023-12-14T08:54:39.703Z,3.18
2023-12-14T08:57:43.479Z,3.39
2023-12-14T09:00:47.902Z,3.37
2023-12-14T09:03:53.288Z,3.46
2023-12-14T09:06:58.099Z,3.53
2023-12-14T09:10:04.440Z,3.55
2023-12-14T09:13:10.837Z,3.66
2023-12-14T09:16:15.074Z,3.64
2023-12-14T09:19:20.711Z,3.65
2023-12-14T09:22:24.491Z,3.60
2023-12-14T09:25:28.284Z,3.49
2023-12-14T09:28:32.156Z,3.70
2023-12-14T09:31:36.420Z,3.78
2023-12-14T09:34:42.173Z,3.62
2023-12-14T09:37:45.929Z,3.56
2023-12-14T09:40:49.741Z,3.60
2023-12-14T09:43:54.534Z,3.49
2023-12-14T09:47:01.450Z,3.49
2023-12-14T09:50:09.235Z,3.45
2023-12-14T09:53:13.624Z,3.67
2023-12-14T09:56:17.499Z,3.58
2023-12-14T09:59:21.594Z,3.70
2023-12-14T10:02:29.411Z,3.58
2023-12-14T10:05:34.754Z,3.51
2023-12-14T10:08:38.584Z,3.46
2023-12-14T10:11:43.039Z,3.53
2023-12-14T10:14:46.974Z,3.76
2023-12-14T10:17:55.496Z,3.74
2023-12-14T10:21:00.801Z,3.75
2023-12-14T10:24:05.175Z,3.90
2023-12-14T10:27:09.821Z,3.75
2023-12-14T10:30:16.682Z,3.84
2023-12-14T10:33:20.632Z,3.77
2023-12-14T10:36:28.601Z,3.85
2023-12-14T10:39:33.874Z,3.85
2023-12-14T10:42:39.731Z,4.07
2023-12-14T10:45:50.118Z,3.76
2023-12-14T10:48:54.416Z,3.74
2023-12-14T10:52:02.351Z,3.93
2023-12-14T10:55:13.566Z,4.08
2023-12-14T10:58:17.351Z,3.94
2023-12-14T11:01:25.288Z,3.66
2023-12-14T11:04:29.498Z,3.67
2023-12-14T11:07:58.331Z,3.68
2023-12-14T11:11:11.512Z,3.82
2023-12-14T11:14:21.411Z,3.85
2023-12-14T11:17:25.595Z,3.82
2023-12-14T11:20:29.959Z,3.91
2023-12-14T11:23:40.310Z,3.95
2023-12-14T11:26:44.356Z,3.82
2023-12-14T11:29:50.063Z,3.81
2023-12-14T11:32:55.766Z,3.83
2023-12-14T11:35:59.613Z,4.15
2023-12-14T11:39:06.708Z,4.32
2023-12-14T11:42:11.942Z,4.42
2023-12-14T11:45:15.876Z,4.09
2023-12-14T11:48:21.718Z,4.05
2023-12-14T11:51:27.022Z,4.16
2023-12-14T11:54:32.378Z,4.23
2023-12-14T11:57:36.947Z,4.36
2023-12-14T12:00:41.243Z,4.12
2023-12-14T12:03:46.145Z,4.31
2023-12-14T12:06:49.956Z,4.15
2023-12-14T12:09:55.175Z,4.17
2023-12-14T12:13:03.812Z,4.08
2023-12-14T12:16:07.972Z,4.18
2023-12-14T12:19:11.844Z,4.31
2023-12-14T12:22:15.677Z,4.37
2023-12-14T12:25:20.858Z,4.28
2023-12-14T12:28:24.591Z,4.20
2023-12-14T12:31:28.294Z,4.27
2023-12-14T12:34:32.092Z,4.16
2023-12-14T12:37:36.190Z,4.19
2023-12-14T12:40:41.524Z,4.05
2023-12-14T12:43:45.364Z,4.08
2023-12-14T12:46:58.063Z,4.11
2023-12-14T12:50:10.810Z,4.20
2023-12-14T12:53:14.705Z,4.12
2023-12-14T12:56:20.293Z,4.19
2023-12-14T12:59:24.317Z,4.13
2023-12-14T13:02:28.126Z,4.01
2023-12-14T13:05:31.939Z,4.02
2023-12-14T13:08:35.807Z,4.09
2023-12-14T13:11:41.023Z,4.18
2023-12-14T13:14:45.072Z,4.11
2023-12-14T13:17:48.902Z,4.08
2023-12-14T13:20:52.729Z,4.07
2023-12-14T13:23:57.832Z,4.15
2023-12-14T13:27:03.097Z,4.12
2023-12-14T13:30:09.499Z,3.96
2023-12-14T13:33:13.974Z,4.00
2023-12-14T13:36:19.926Z,4.01
2023-12-14T13:39:24.056Z,3.97
2023-12-14T13:42:29.280Z,3.98
2023-12-14T13:45:33.007Z,4.08
2023-12-14T13:48:36.946Z,3.93
2023-12-14T13:51:40.771Z,3.95
2023-12-14T13:54:44.598Z,4.00
2023-12-14T13:57:50.063Z,3.93
2023-12-14T14:00:54.104Z,3.94
2023-12-14T14:03:57.896Z,3.99
2023-12-14T14:07:01.900Z,3.94
2023-12-14T14:10:06.963Z,4.04
2023-12-14T14:13:12.178Z,4.04
2023-12-14T14:16:16.962Z,3.97
2023-12-14T14:19:20.841Z,3.81
2023-12-14T14:22:25.307Z,3.87
2023-12-14T14:25:29.234Z,4.00
2023-12-14T14:28:34.427Z,3.94
2023-12-14T14:31:38.268Z,3.88
2023-12-14T14:34:42.140Z,3.84
2023-12-14T14:37:47.639Z,3.66
2023-12-14T14:40:51.612Z,3.67
2023-12-14T14:43:56.791Z,3.72
2023-12-14T14:47:00.916Z,3.64
2023-12-14T14:50:08.245Z,3.50
2023-12-14T14:53:14.125Z,3.58
2023-12-14T14:56:17.962Z,3.45
2023-12-14T14:59:23.788Z,3.47
2023-12-14T15:02:27.938Z,3.55
2023-12-14T15:05:32.859Z,3.58
2023-12-14T15:08:36.744Z,3.52
2023-12-14T15:11:40.469Z,3.54
2023-12-14T15:14:46.104Z,3.47
2023-12-14T15:17:49.850Z,3.49
2023-12-14T15:20:54.024Z,3.40
2023-12-14T15:23:57.815Z,3.39
2023-12-14T15:27:01.673Z,3.34
2023-12-14T15:30:10.291Z,3.23
2023-12-14T15:33:14.784Z,3.17
2023-12-14T15:36:18.757Z,3.19
2023-12-14T15:39:22.542Z,3.16
2023-12-14T15:42:26.366Z,3.14
2023-12-14T15:45:34.479Z,3.08
2023-12-14T15:48:38.673Z,3.04
2023-12-14T15:51:43.056Z,3.10
2023-12-14T15:54:46.820Z,3.14
2023-12-14T15:57:50.655Z,3.10
2023-12-14T16:00:55.870Z,3.13
2023-12-14T16:03:59.728Z,3.11
2023-12-14T16:07:03.523Z,3.13
2023-12-14T16:10:09.206Z,3.12
2023-12-14T16:13:13.105Z,3.05
2023-12-14T16:16:18.234Z,3.08
2023-12-14T16:19:22.334Z,3.04
2023-12-14T16:22:26.019Z,3.00
2023-12-14T16:25:29.777Z,2.90
2023-12-14T16:28:33.652Z,2.84
2023-12-14T16:31:44.724Z,2.82
2023-12-14T16:34:48.538Z,2.82
2023-12-14T16:37:52.634Z,2.72
2023-12-14T16:40:56.575Z,2.73
2023-12-14T16:44:00.364Z,2.83
2023-12-14T16:47:08.304Z,2.71
2023-12-14T16:50:12.997Z,2.71
2023-12-14T16:53:17.010Z,2.67
2023-12-14T16:56:20.971Z,2.64
2023-12-14T16:59:24.819Z,2.63
2023-12-14T17:02:29.982Z,2.62
2023-12-14T17:05:35.409Z,2.61
2023-12-14T17:08:39.387Z,2.47
2023-12-14T17:11:43.751Z,2.40
2023-12-14T17:14:47.770Z,2.41
2023-12-14T17:17:52.980Z,2.39
2023-12-14T17:20:56.690Z,2.35
2023-12-14T17:24:01.782Z,2.41
2023-12-14T17:27:06.240Z,2.49
2023-12-14T17:30:11.565Z,2.53
2023-12-14T17:33:16.982Z,2.61
2023-12-14T17:36:20.880Z,2.61
2023-12-14T17:39:24.696Z,2.67
2023-12-14T17:42:28.533Z,2.72
2023-12-14T17:45:41.118Z,2.80
2023-12-14T17:48:46.663Z,2.80
2023-12-14T17:51:50.484Z,2.84
2023-12-14T17:54:54.361Z,2.91
2023-12-14T17:57:58.163Z,2.94
2023-12-14T18:01:05.640Z,2.95
2023-12-14T18:04:11.529Z,2.92
2023-12-14T18:07:17.178Z,2.91
2023-12-14T18:10:22.093Z,2.88
2023-12-14T18:13:26.630Z,2.89
2023-12-14T18:16:30.891Z,2.91
2023-12-14T18:19:36.113Z,2.94
2023-12-14T18:22:39.919Z,2.97
2023-12-14T18:25:47.326Z,2.99
2023-12-14T18:28:51.333Z,3.04
2023-12-14T18:31:55.144Z,3.12
2023-12-14T18:35:00.359Z,3.13
2023-12-14T18:38:04.267Z,3.12
2023-12-14T18:41:08.415Z,3.13
2023-12-14T18:44:12.713Z,3.14
2023-12-14T18:47:16.873Z,3.17
2023-12-14T18:50:22.115Z,3.14
2023-12-14T18:53:25.917Z,3.14
2023-12-14T18:56:32.536Z,3.15
2023-12-14T18:59:37.473Z,3.17
2023-12-14T19:02:41.464Z,3.29
2023-12-14T19:05:47.003Z,3.28
2023-12-14T19:08:51.805Z,3.26
2023-12-14T19:11:55.538Z,3.25
2023-12-14T19:14:59.325Z,3.26
2023-12-14T19:18:03.539Z,3.29
2023-12-14T19:21:09.097Z,3.35
2023-12-14T19:24:12.812Z,3.36
2023-12-14T19:27:16.748Z,3.37
2023-12-14T19:30:22.283Z,3.35
2023-12-14T19:33:26.404Z,3.35
2023-12-14T19:36:33.179Z,3.36
2023-12-14T19:39:37.195Z,3.35
2023-12-14T19:42:40.970Z,3.37
2023-12-14T19:45:44.965Z,3.32
2023-12-14T19:48:48.843Z,3.31
2023-12-14T19:51:54.154Z,3.25
2023-12-14T19:54:58.880Z,3.29
2023-12-14T19:58:02.815Z,3.24
2023-12-14T20:01:06.998Z,3.21
2023-12-14T20:04:12.938Z,3.16
2023-12-14T20:07:20.397Z,3.13
2023-12-14T20:10:24.272Z,3.08
2023-12-14T20:13:28.655Z,3.05
2023-12-14T20:16:32.472Z,3.01
2023-12-14T20:19:36.224Z,3.02
2023-12-14T20:22:41.910Z,3.01
2023-12-14T20:25:46.059Z,3.01
2023-12-14T20:28:50.202Z,2.99
2023-12-14T20:31:54.010Z,3.00
2023-12-14T20:34:57.942Z,2.99
2023-12-14T20:38:07.787Z,2.97
2023-12-14T20:41:11.707Z,2.89
2023-12-14T20:44:15.563Z,2.88
2023-12-14T20:47:19.354Z,2.90
2023-12-14T20:50:23.592Z,2.85
2023-12-14T20:53:28.878Z,2.82
2023-12-14T20:56:32.796Z,2.74
2023-12-14T20:59:36.604Z,2.71
2023-12-14T21:02:41.113Z,2.65
2023-12-14T21:05:48.867Z,2.67
2023-12-14T21:08:54.718Z,2.67
2023-12-14T21:11:58.536Z,2.64
2023-12-14T21:15:02.355Z,2.66
2023-12-14T21:18:06.442Z,2.70
2023-12-14T21:21:10.435Z,2.70
2023-12-14T21:24:18.633Z,2.72
2023-12-14T21:27:40.194Z,2.77
2023-12-14T21:30:44.629Z,2.79
2023-12-14T21:33:48.444Z,2.80
2023-12-14T21:36:52.295Z,2.82
2023-12-14T21:39:57.453Z,2.85
2023-12-14T21:43:01.279Z,2.87
2023-12-14T21:46:05.269Z,2.83
2023-12-14T21:49:16.725Z,2.86
2023-12-14T21:52:22.814Z,2.90
2023-12-14T21:55:28.191Z,2.92
2023-12-14T21:58:31.918Z,2.87
2023-12-14T22:01:36.149Z,2.82
2023-12-14T22:04:39.983Z,2.87
2023-12-14T22:07:43.817Z,2.87
2023-12-14T22:10:49.107Z,2.89
2023-12-14T22:13:52.958Z,2.87
2023-12-14T22:16:58.447Z,2.92
2023-12-14T22:20:02.253Z,2.87
2023-12-14T22:23:06.119Z,2.87
2023-12-14T22:26:11.416Z,2.87
2023-12-14T22:29:15.227Z,2.86
2023-12-14T22:32:19.043Z,2.91
2023-12-14T22:35:23.678Z,2.89
2023-12-14T22:38:27.987Z,2.86
2023-12-14T22:41:33.252Z,2.88
2023-12-14T22:44:37.070Z,2.90
2023-12-14T22:47:41.298Z,2.93
2023-12-14T22:50:45.470Z,2.88
2023-12-14T22:53:49.712Z,2.87
2023-12-14T22:56:56.340Z,2.90
2023-12-14T23:00:00.161Z,2.92
2023-12-14T23:03:03.997Z,2.92
2023-12-14T23:06:08.924Z,2.97
2023-12-14T23:09:14.237Z,3.01
2023-12-14T23:12:20.742Z,3.01
2023-12-14T23:15:25.570Z,3.00
2023-12-14T23:18:29.533Z,3.03
2023-12-14T23:21:33.390Z,3.01
2023-12-14T23:24:37.227Z,2.99
2023-12-14T23:27:42.492Z,2.96
2023-12-14T23:30:46.250Z,2.99
2023-12-14T23:33:50.152Z,2.98
2023-12-14T23:36:54.220Z,3.01
2023-12-14T23:39:58.058Z,3.06
2023-12-14T23:43:03.386Z,3.08
2023-12-14T23:46:07.895Z,3.02
2023-12-14T23:49:11.739Z,3.11
2023-12-14T23:52:15.625Z,3.12
2023-12-14T23:55:19.392Z,3.09
2023-12-14T23:58:24.603Z,3.11
